Aktualne dane pomiarowe

Uwaga, wersja testowa! Automatyczne pobieranie danych za pomocą narzędzi lub skryptów to umożliwiających jest zabronione.

Dane meteo z obszaru Polski uzyskane na podstawie depesz SYNOP pobieranych co godzinę z NWS. Najedź myszką na symbol przedstawiony w tabeli, aby uzyskać informacje co do jego znaczenia. Prosimy pamiętać, że to testowa wersja strony, która jeszcze nie jest ukończona. Stworzono również jest krótki FAQ dotyczący korzystania z tej podstrony Anomalie temperatury w chwili obecnej odniesione są do okresu referencyjnego 1951-2016. Okres ten będzie później zmieniony na 1981-2010. Kliknij ikonę aby pobrać plik CSV. Kliknij ikonę aby wygenerować mapę synoptyczną dla danego terminu.

Wybierz Datę:    

        

Łask (12454)

Dane terminowe dla wybranej stacji. Kliknij datę, aby otrzymać dane z tego terminu dla wszystkich stacji.

TemperaturaZachmurzenieWiatrCiśnienieOpadyPogoda
 Data t td wb tx tn tg rh  Nt Nl Cl Cm Ch ws wd g1 g2 wx mslp ppp ch 24h 12h t ww ww w1 w2  
2019-06-30 23:00:00 23.4 12.2 16.5--- 4960.0wx-2wx---1011.4 989.5 -0.2---------
2019-06-30 22:00:00 25.3 12.2 17.3--- 4460.0wx-3wx---1011.4 989.6 0.1---------
2019-06-30 21:00:00 25.9 11.3 17.1--- 4030.0wx-wx3wx---1011.4 989.7 0.4---------
2019-06-30 20:00:00 28.1 10.4 17.6--- 3330.0wx-wx4wx---1011.2 989.7 0.3---------
2019-06-30 19:00:00 29.8 9.5 17.8--- 2830.0wx-wx4wx---1010.9 989.5 -0.5---------
2019-06-30 18:00:00 32.3 7.9 18.1 36.2 23.6- 2230.0wx-3wx---1010.5 989.2 -1.4- 0.012------
2019-06-30 17:00:00 34.6 6.6 18.3--- 1830.0wx-4wx---1010.6 989.4 -1.9---------
2019-06-30 16:00:00 35.3 6.3 18.4--- 1730.0wx-6wx---1011.0 989.9 -2.0---------
2019-06-30 15:00:00 35.6 6.1 18.4--- 1630.0wx-5wx---1011.7 990.6 -2.0---------
2019-06-30 14:00:00 35.3 6.2 18.4--- 1730.0wx-5wx---1012.5 991.3 -1.9---------
2019-06-30 13:00:00 35.2 6.4 18.4--- 1730.0wx-5wx---1013.1 991.9 -1.9---------
2019-06-30 12:00:00 34.4 6.6 18.2--- 1865.0wx-5wx---1013.8 992.6 -1.6- 0.06------
2019-06-30 11:00:00 33.4 8.9 18.9--- 2230.0wx-4wx---1014.4 993.1 -1.4---------
2019-06-30 10:00:00 31.4 7.7 17.7--- 2330.0wx-5wx---1015.3 993.9 -0.9---------
2019-06-30 09:00:00 30.9 10.4 18.6--- 2830.0wx-6wx---1015.7 994.3 -0.8---------
2019-06-30 08:00:00 28.8 10.2 17.8--- 3130.0wx-6wx---1016.2 994.6 -0.4---------
2019-06-30 07:00:00 26.8 11.9 17.8--- 4030.0wx-4wx---1016.6 994.8 -0.1---------
2019-06-30 06:00:00 23.4 11.1 16.0 25.8 14.7- 4630.0wx-2wx---1017.1 995.1 0.2 0.0 0.012------
2019-06-30 05:00:00 19.7 12.0 14.9--- 6130.0wx-wx2wx---1017.3 995.0 0.2---------
2019-06-30 04:00:00 16.2 10.9 12.8--- 7130.0wx-1wx---1017.5 994.9 -0.2---------
2019-06-30 03:00:00 14.9 9.7 11.6--- 7145.0wx-1wx---1017.5 994.8 -0.6---------
2019-06-30 02:00:00 15.3 9.8 11.9--- 7045.0wx-1wx---1017.5 994.8 -0.8---------
2019-06-30 01:00:00 15.5 9.7 11.9--- 6850.0wx-1wx---1017.8 995.2 -0.5---------
2019-06-30 00:00:00 16.8 9.5 12.4--- 6250.0wx-1wx---1018.0 995.4 -0.3- 0.06------
2019-06-29 23:00:00 17.4 9.6 12.7--- 6050.0wx-1wx---1018.1 995.6 -0.2---------
2019-06-29 22:00:00 17.8 9.8 13.0--- 5945.0wx-1wx---1018.1 995.6 0.0---------
2019-06-29 21:00:00 18.8 9.6 13.3--- 5530.0wx-wx0----1018.1 995.7 0.1---------
2019-06-29 20:00:00 20.4 9.7 14.1--- 5030.0wx-wx1----1018.1 995.8 0.3---------
2019-06-29 19:00:00 23.2 9.3 15.1--- 4130.0wx-wx1----1017.7 995.6 -0.1---------
2019-06-29 18:00:00 25.8 8.3 15.8 28.1 18.5- 3330.0wx-wx3wx---1017.5 995.6 -0.3- 0.012------
2019-06-29 17:00:00 26.9 7.9 16.0--- 3030.0wx-wx6wx---1017.4 995.6 -0.9---------
2019-06-29 16:00:00 27.5 7.2 16.0--- 2830.0wx-wx6wx---1017.4 995.7 -1.0---------
2019-06-29 15:00:00 27.8 4.3 15.0--- 2230.0wx-wx6wx---1017.6 995.9 -1.3---------
2019-06-29 14:00:00 27.7 4.5 15.0--- 2330.0wx-wx6wx-12-1018.3 996.5 -1.4---------
2019-06-29 13:00:00 27.1 5.3 15.1--- 2530.0wx-wx8wx-13-1018.5 996.7 -1.7---------
2019-06-29 12:00:00 26.4 7.6 15.7--- 3030.0wx-wx6wx---1019.1 997.2 -1.5- 0.06------
2019-06-29 11:00:00 25.7 8.8 15.9--- 3430.0wxwxwxwx5wx-11-1019.8 997.9 -1.2---------
2019-06-29 10:00:00 24.1 7.9 14.9--- 3630.0wxwxwxwx6wx-11-1020.4 998.3 -1.0---------
2019-06-29 09:00:00 23.2 7.0 14.2--- 3530.0wxwxwxwx6wx---1020.9 998.7 -0.5---------
2019-06-29 08:00:00 22.4 6.8 13.7--- 3730.0wx-wxwx4wx---1021.3 999.1 -0.4---------
2019-06-29 07:00:00 20.4 5.8 12.4--- 3970.0wx-3wx---1021.8 999.4 -0.3---------
2019-06-29 06:00:00 18.4 6.6 11.8 21.1 9.3- 4630.0wx-wx3wx---1021.8 999.2 -0.3--12------
2019-06-29 05:00:00 14.8 9.1 11.3--- 6955.0wx-wx1wx---1022.4 999.6 0.1---------
2019-06-29 04:00:00 12.0 7.7 9.3--- 7555.0wx-wx1wx---1022.7 999.7 0.3---------
2019-06-29 03:00:00 9.5 7.2 8.0--- 8650.0wx-1wx---1022.9 999.6 0.2---------
2019-06-29 02:00:00 9.5 6.8 7.8--- 8360.0wx-1wx---1022.8 999.5 0.2---------
2019-06-29 01:00:00 11.4 6.2 8.3--- 7065.0wx-1wx---1022.5 999.4 0.2---------
2019-06-29 00:00:00 12.7 6.3 9.0--- 6570.0wx-0----1022.4 999.4 0.6--6------
1.4 ms

 

Print Friendly, PDF & Email